Terminal Aerodrome Forecast
Issued by NWS

Home | Current Version | Previous Version | Text Only | Print | Product List | Glossary On
Versions: 1 2 3 4 5 6 7 8 9 10 11 12 13 14
000
FTUS45 KTFX 292300
TAFLWT
TAF
KLWT 292327Z 3000/3024 30010G18KT P6SM FEW080 BKN250
     FM300300 26008KT P6SM BKN250
     FM301200 24008KT P6SM SKC
     FM301700 27007KT P6SM SCT070
     FM302000 28012KT P6SM SCT070=

USA.gov is the U.S. government's official web portal to all federal, state and local government web resources and services.